createdAt,value
2022-08-01T11:30:47.824Z,60.810001
2022-08-01T11:31:56.443Z,60.632999
2022-08-01T11:33:10.869Z,61.063999
2022-08-01T11:34:16.659Z,60.985001
2022-08-01T11:35:24.279Z,60.57
2022-08-01T11:36:57.965Z,60.367001
2022-08-01T11:37:45.463Z,61.162998
2022-08-01T11:38:55.077Z,61.423
2022-08-01T11:40:04.659Z,62.014999
2022-08-01T11:41:14.262Z,61.877998
2022-08-01T11:42:23.862Z,61.185001
2022-08-01T11:43:32.435Z,61.277
2022-08-01T11:44:41.051Z,61.511002
2022-08-01T11:45:50.689Z,61.407001
2022-08-01T11:46:58.237Z,61.792999
2022-08-01T11:48:07.832Z,61.717999
2022-08-01T11:49:16.494Z,61.808998
2022-08-01T11:50:25.145Z,61.761002
2022-08-01T11:51:35.935Z,61.414001
2022-08-01T11:52:43.634Z,61.542999
2022-08-01T11:53:52.206Z,61.345001
2022-08-01T11:55:01.788Z,61.723999
2022-08-01T11:56:10.412Z,61.761002
2022-08-01T11:57:20.163Z,61.792
2022-08-01T11:58:31.486Z,61.645
2022-08-01T11:59:41.268Z,61.750999
2022-08-01T12:00:50.817Z,61.837002
2022-08-01T12:01:58.452Z,61.835999
2022-08-01T12:03:07.987Z,61.452999
2022-08-01T12:04:18.601Z,61.568001
2022-08-01T12:05:27.173Z,61.455002
2022-08-01T12:06:35.755Z,61.416
2022-08-01T12:07:45.349Z,61.380001
2022-08-01T12:08:53.949Z,61.23
2022-08-01T12:10:02.540Z,61.063999
2022-08-01T12:11:11.120Z,61.088001
2022-08-01T12:12:18.794Z,61.145
2022-08-01T12:13:28.405Z,61.280998
2022-08-01T12:14:38.003Z,61.317001
2022-08-01T12:15:47.143Z,61.088001
2022-08-01T12:16:57.541Z,61.040001
2022-08-01T12:18:07.156Z,60.923
2022-08-01T12:19:16.783Z,61.046001
2022-08-01T12:20:24.470Z,60.972
2022-08-01T12:21:33.119Z,60.866001
2022-08-01T12:22:42.722Z,60.967999
2022-08-01T12:23:51.288Z,60.931
2022-08-01T12:25:00.868Z,60.911999
2022-08-01T12:26:25.978Z,60.942001
2022-08-01T12:27:21.418Z,60.848999
2022-08-01T12:28:31.054Z,60.817001
2022-08-01T12:29:39.640Z,60.658001
2022-08-01T12:30:47.218Z,60.662998
2022-08-01T12:31:56.895Z,60.617001
2022-08-01T12:33:06.890Z,60.604
2022-08-01T12:34:16.124Z,60.368999
2022-08-01T12:35:25.781Z,60.438999
2022-08-01T12:36:34.366Z,60.43
2022-08-01T12:37:43.990Z,60.498001
2022-08-01T12:38:51.663Z,60.362
2022-08-01T12:40:00.287Z,60.509998
2022-08-01T12:41:09.856Z,60.417999
2022-08-01T12:42:18.423Z,60.264
2022-08-01T12:43:29.543Z,60.327999
2022-08-01T12:44:37.958Z,60.314999
2022-08-01T12:45:54.692Z,60.294998
2022-08-01T12:46:58.201Z,60.463001
2022-08-01T12:48:06.197Z,60.366001
2022-08-01T12:49:13.666Z,60.23
2022-08-01T12:50:23.241Z,60.278
2022-08-01T12:51:31.819Z,60.186001
2022-08-01T12:52:40.622Z,60.268002
2022-08-01T12:53:49.184Z,60.185001
2022-08-01T12:54:58.744Z,60.294998
2022-08-01T12:56:08.345Z,60.301998
2022-08-01T12:57:15.915Z,60.241001
2022-08-01T12:58:24.507Z,60.187
2022-08-01T12:59:34.082Z,60.549999
2022-08-01T13:00:42.655Z,60.452
2022-08-01T13:01:51.278Z,60.535999
2022-08-01T13:03:01.814Z,60.666
2022-08-01T13:04:10.434Z,60.501999
2022-08-01T13:05:20.301Z,60.467999
2022-08-01T13:06:27.874Z,60.421001
2022-08-01T13:07:43.648Z,60.424999
2022-08-01T13:08:47.990Z,60.263
2022-08-01T13:09:56.563Z,60.291
2022-08-01T13:11:06.141Z,60.276001
2022-08-01T13:12:14.700Z,60.287998
2022-08-01T13:13:28.069Z,60.424
2022-08-01T13:14:32.048Z,60.422001
2022-08-01T13:15:42.623Z,60.383999
2022-08-01T13:16:57.005Z,60.374001
2022-08-01T13:18:02.037Z,60.306
2022-08-01T13:19:10.601Z,60.299999
2022-08-01T13:20:19.160Z,60.280998
2022-08-01T13:21:28.721Z,60.238998
2022-08-01T13:22:38.313Z,60.201
2022-08-01T13:24:02.203Z,59.91
2022-08-01T13:24:58.574Z,59.616001
2022-08-01T13:26:07.135Z,59.323002
2022-08-01T13:27:17.036Z,59.060001
2022-08-01T13:28:26.678Z,58.737
2022-08-01T13:29:34.240Z,58.485001
2022-08-01T13:30:47.310Z,58.25
2022-08-01T13:31:54.903Z,57.970001
2022-08-01T13:33:01.309Z,57.784
2022-08-01T13:34:11.354Z,57.597
2022-08-01T13:35:20.175Z,57.362999
2022-08-01T13:36:29.637Z,57.278999
2022-08-01T13:37:38.490Z,57.036999
2022-08-01T13:38:46.848Z,56.997002
2022-08-01T13:39:56.435Z,56.882
2022-08-01T13:41:04.016Z,56.658001
2022-08-01T13:42:16.407Z,56.784
2022-08-01T13:43:24.228Z,56.707001
2022-08-01T13:44:34.804Z,56.598
2022-08-01T13:45:44.667Z,56.345001
2022-08-01T13:46:53.924Z,56.356998
2022-08-01T13:48:12.598Z,56.109001
2022-08-01T13:49:15.105Z,55.785
2022-08-01T13:50:24.043Z,55.716
2022-08-01T13:51:31.618Z,55.839001
2022-08-01T13:52:42.699Z,55.623001
2022-08-01T13:53:51.215Z,55.801998
2022-08-01T13:54:59.787Z,55.687
2022-08-01T13:56:09.357Z,55.535999
2022-08-01T13:57:17.916Z,55.256001
2022-08-01T13:58:27.524Z,55.268002
2022-08-01T13:59:36.086Z,55.125999
2022-08-01T14:00:43.790Z,54.967999
2022-08-01T14:01:53.313Z,55
2022-08-01T14:03:01.977Z,55.089001
2022-08-01T14:04:10.541Z,54.944
2022-08-01T14:05:19.135Z,54.791
2022-08-01T14:06:27.698Z,54.676998
2022-08-01T14:07:38.184Z,54.841999
2022-08-01T14:08:46.830Z,54.658001
2022-08-01T14:10:04.364Z,54.747002
2022-08-01T14:11:07.618Z,54.569
2022-08-01T14:12:15.518Z,54.382
2022-08-01T14:13:25.082Z,54.382
2022-08-01T14:14:35.649Z,54.235001
2022-08-01T14:15:45.199Z,54.305
2022-08-01T14:16:54.769Z,54.716
2022-08-01T14:18:03.219Z,54.772999
2022-08-01T14:19:11.785Z,54.667
2022-08-01T14:20:21.366Z,54.578999
2022-08-01T14:21:29.943Z,54.557999
2022-08-01T14:22:37.550Z,54.451
2022-08-01T14:23:46.139Z,54.236
2022-08-01T14:24:59.558Z,54.102001
2022-08-01T14:26:09.928Z,54.021999
2022-08-01T14:27:16.781Z,53.993
2022-08-01T14:28:24.367Z,53.886002
2022-08-01T14:30:00.516Z,53.868
2022-08-01T14:30:44.505Z,53.855999
2022-08-01T14:31:53.069Z,53.886002
2022-08-01T14:33:01.664Z,53.893002
2022-08-01T14:34:10.232Z,53.831001
2022-08-01T14:35:19.803Z,53.924
2022-08-01T14:36:28.831Z,53.893002
2022-08-01T14:37:38.834Z,53.825001
2022-08-01T14:38:48.050Z,53.874001
2022-08-01T14:39:56.616Z,53.924
2022-08-01T14:41:05.195Z,53.987
2022-08-01T14:42:14.796Z,53.957001
2022-08-01T14:43:28.280Z,53.924
2022-08-01T14:44:34.949Z,53.868
2022-08-01T14:45:45.525Z,53.963001
2022-08-01T14:46:57.506Z,54
2022-08-01T14:48:05.444Z,53.924
2022-08-01T14:49:14.101Z,53.917
2022-08-01T14:50:22.625Z,53.879002
2022-08-01T14:51:31.233Z,53.903
2022-08-01T14:52:39.963Z,53.879002
2022-08-01T14:53:51.061Z,53.884998
2022-08-01T14:54:59.733Z,53.814999
2022-08-01T14:56:07.396Z,53.808998
2022-08-01T14:57:17.022Z,53.827
2022-08-01T14:58:25.680Z,53.919998
2022-08-01T14:59:34.450Z,53.799
2022-08-01T15:00:43.202Z,53.806999
2022-08-01T15:01:51.774Z,53.75
2022-08-01T15:03:01.397Z,53.756001
2022-08-01T15:04:09.750Z,53.799
2022-08-01T15:05:16.672Z,53.713001
2022-08-01T15:06:27.416Z,53.695
2022-08-01T15:07:41.743Z,53.631001
2022-08-01T15:08:46.627Z,53.594002
2022-08-01T15:09:55.644Z,53.582001
2022-08-01T15:11:05.216Z,53.487
2022-08-01T15:12:13.795Z,53.5
2022-08-01T15:13:23.484Z,53.493
2022-08-01T15:14:32.052Z,53.457001
2022-08-01T15:15:50.620Z,53.424
2022-08-01T15:17:03.628Z,53.393002
2022-08-01T15:18:13.852Z,53.328999
2022-08-01T15:19:23.523Z,53.436001
2022-08-01T15:20:32.096Z,53.422001
2022-08-01T15:21:42.296Z,53.465
2022-08-01T15:22:51.541Z,53.41
2022-08-01T15:24:00.167Z,53.403
2022-08-01T15:25:08.804Z,53.382999
2022-08-01T15:26:17.485Z,53.264
2022-08-01T15:27:26.143Z,53.327
2022-08-01T15:28:35.814Z,53.257999
2022-08-01T15:29:44.409Z,53.276001
2022-08-01T15:30:53.008Z,53.240002
2022-08-01T15:32:02.616Z,53.240002
2022-08-01T15:33:11.198Z,53.202999
2022-08-01T15:34:19.833Z,53.172001
2022-08-01T15:35:28.445Z,53.126999
2022-08-01T15:36:37.085Z,53.103001
2022-08-01T15:37:47.699Z,53.146
2022-08-01T15:38:55.299Z,53.109001
2022-08-01T15:40:02.893Z,53.053001
2022-08-01T15:41:12.558Z,53.118999
2022-08-01T15:42:25.454Z,53.049999
2022-08-01T15:43:30.796Z,53.056
2022-08-01T15:44:40.345Z,53.155998
2022-08-01T15:45:49.916Z,53.125
2022-08-01T15:46:59.728Z,53.007
2022-08-01T15:48:08.304Z,52.84
2022-08-01T15:49:15.892Z,52.928001
